Meteo Giornale » Osservazioni meteo Russia » Ufa
ore: 00:30 - Osservazioni Meteo Ufa
Lat. 54° 43' N Lon. 55° 55' E Alt. metri s.l.m.
7 °C
Sereno
Temp. 24 Ore
5 °C
16 °C
Sud/Sud-Ovest
18 Km/h
Dew point 4 °C
Umidità 81 %
Visibilità 10 Km
Il sole sorge alle ore 06:23
Il sole tramonta alle ore 20:09
| Data e Ora | Cielo e Fenomeni | T °C | DP °C | Um. % | Pres. hPa | Vis. km | Vento km/h | |
|---|---|---|---|---|---|---|---|---|
| Oggi h: 00:30 | Sereno | 7 | 4 | 81 | 1020 | 10 | S/SO 18 | |
| Oggi h: 00:00 | Sereno | 6 | 4 | 86 | 1020 | 10 | S/SO 10.8 | |
| Ieri h: 23:30 | Sereno | 7 | 4 | 81 | 1020 | 10 | N 7.2 | |
| Ieri h: 23:00 | Sereno | 7 | 4 | 81 | 1020 | 10 | S 14.4 | |
| Ieri h: 22:30 | Sereno | 7 | 4 | 81 | 1019 | 10 | S 14.4 | |
| Ieri h: 22:00 | Sereno | 8 | 4 | 75 | 1020 | 10 | S/SE 10.8 | |
| Ieri h: 21:30 | Sereno | 8 | 4 | 75 | 1020 | 10 | S/SE 10.8 | |
| Ieri h: 21:00 | Sereno | 10 | 4 | 66 | 1020 | 10 | SE 10.8 | |
| Ieri h: 20:30 | Sereno | 11 | 5 | 66 | 1019 | 10 | N 7.2 | |
| Ieri h: 20:00 | Sereno | 14 | 4 | 50 | 1019 | 10 | N 3.6 | |
| Ieri h: 19:30 | Sereno | 14 | 5 | 54 | 1019 | 10 | N 7.2 | |
| Ieri h: 19:00 | Sereno | 15 | 5 | 51 | 1020 | 10 | N/NO 10.8 | |
| Ieri h: 18:30 | Sereno | 16 | 4 | 44 | 1020 | 10 | N/NO 14.4 | |
| Ieri h: 18:00 | Sereno | 16 | 4 | 44 | 1020 | 10 | NO 18 | |
| Ieri h: 17:30 | Sereno | 16 | 4 | 44 | 1020 | 10 | N/NO 18 | |
| Ieri h: 17:00 | Molto Nuvoloso | 16 | 5 | 47 | 1020 | 10 | NO 25.2 | |
| Ieri h: 16:30 | Molto Nuvoloso | 16 | 4 | 44 | 1020 | 10 | NO 18 | |
| Ieri h: 16:00 | Molto Nuvoloso | 16 | 4 | 44 | 1021 | 10 | NO 18 | |
| Ieri h: 15:30 | Molto Nuvoloso | 16 | 4 | 44 | 1021 | 10 | NO 25.2 | |
| Ieri h: 15:00 | Molto Nuvoloso | 16 | 4 | 44 | 1021 | 10 | NO 25.2 | |
| Ieri h: 14:30 | Molto Nuvoloso | 16 | 4 | 44 | 1021 | 10 | NO 25.2 | |
| Ieri h: 14:00 | Nuvoloso | 15 | 4 | 47 | 1021 | 10 | NO 28.8 | |
| Ieri h: 13:56 | Nuvoloso | 15 | 4 | 47 | 1021 | 10 | NO 28.8 | |
| Ieri h: 13:36 | Nuvoloso | 14 | 4 | 50 | 1021 | 10 | N/NO 28.8 | |
| Ieri h: 13:30 | Nuvoloso | 14 | 4 | 50 | 1021 | 10 | N/NO 28.8 | |
| Ieri h: 13:00 | Nuvoloso | 14 | 4 | 50 | 1021 | 10 | NO 28.8 | |
| Ieri h: 12:30 | Nuvoloso | 14 | 4 | 50 | 1021 | 10 | NO 25.2 | |
| Ieri h: 12:00 | Nuvoloso | 13 | 4 | 54 | 1021 | 10 | NO 28.8 | |
| Ieri h: 11:30 | Sereno | 13 | 4 | 54 | 1021 | 10 | NO 36 | |
| Ieri h: 11:12 | Sereno | 13 | 5 | 58 | 1021 | 10 | NO 32.4 | |
| Ieri h: 11:00 | Sereno | 13 | 5 | 58 | 1021 | 10 | O/NO 28.8 | |
| Ieri h: 10:55 | Sereno | 13 | 4 | 54 | 1021 | 10 | O/NO 28.8 | |
| Ieri h: 10:54 | Sereno | 13 | 4 | 54 | 1021 | 10 | O/NO 28.8 | |
| Ieri h: 10:30 | Sereno | 12 | 5 | 62 | 1021 | 10 | NO 25.2 | |
| Ieri h: 10:00 | Sereno | 12 | 5 | 62 | 1021 | 10 | NO 25.2 | |
| Ieri h: 09:30 | Sereno | 11 | 5 | 66 | 1021 | 10 | NO 25.2 | |
| Ieri h: 09:00 | Sereno | 9 | 5 | 75 | 1022 | 10 | O/NO 10.8 | |
| Ieri h: 08:30 | Sereno | 8 | 5 | 81 | 1021 | 10 | O 14.4 | |
| Ieri h: 08:00 | Sereno | 6 | 4 | 86 | 1021 | 10 | N 7.2 | |
| Ieri h: 07:30 | Sereno | 6 | 4 | 86 | 1021 | 10 | N 7.2 | |
| Ieri h: 07:00 | Sereno | 5 | 4 | 93 | 1021 | 10 | SO 10.8 | |
| Ieri h: 06:30 | Sereno | 6 | 4 | 86 | 1021 | 10 | S/SO 10.8 | |
| Ieri h: 06:00 | Sereno | 6 | 4 | 86 | 1021 | 10 | S 14.4 | |
| Ieri h: 05:30 | Sereno | 6 | 4 | 86 | 1021 | 10 | S/SO 14.4 | |
| Ieri h: 05:00 | Sereno | 6 | 4 | 86 | 1021 | 10 | S/SO 14.4 | |
| Ieri h: 04:30 | Sereno | 6 | 5 | 93 | 1022 | 10 | S/SO 10.8 | |
| Ieri h: 04:00 | Sereno | 7 | 5 | 87 | 1022 | 10 | S/SO 10.8 | |
| Ieri h: 03:30 | Sereno | 8 | 5 | 81 | 1022 | 10 | SO 10.8 | |
| Ieri h: 03:00 | Sereno | 8 | 5 | 81 | 1022 | 10 | SO 10.8 | |
| Ieri h: 02:30 | Sereno | 8 | 5 | 81 | 1022 | 10 | SO 10.8 | |
| Ieri h: 02:00 | Sereno | 8 | 5 | 81 | 1022 | 10 | SO 10.8 | |
| Ieri h: 01:30 | Molto Nuvoloso | 8 | 5 | 81 | 1022 | 10 | SO 10.8 | |
| Ieri h: 01:00 | Molto Nuvoloso | 8 | 5 | 81 | 1022 | 10 | SO 10.8 | |



